Lima, OH

2:12 AM EST on January 28, 2015 (GMT -0500)
West side Lima OH | Change Station
CLOSE
Current Station
Personal Weather Station
Location: Lima, OH
Elevation: 870 ft
Nearby Weather Stations

Elev 870 ft 40.75 °N, 84.13 °W | Updated 1 minute ago

Partly Cloudy
Partly Cloudy
15.0 °F
Feels Like 15 °F
N
0.0
Wind Variable Wind from North
Gusts 0.0 mph

Today
High -- | Low -- °F
--% Chance of Precip.
Yesterday
High -- | Low -- °F
Precip. -- in
7:50 AM 5:48 PM
First Quarter, 62% visible
Pressure 30.28 in
Visibility 4.0 miles
Clouds Clear
Windchill 15 °F
Dew Point 15 °F
Humidity 100%
Rainfall 0.00 in
Snow Depth Not available.
UV 0 out of 12
Pollen .10 out of 12
Air Quality Not available.
Flu Activity Not available.
METAR KAOH 280653Z AUTO 00000KT 4SM HZ CLR M12/M15 A3023 RMK AO2 SLP254 T11221150

More Conditions Fewer Conditions

Pressure 30.28 in
Visibility 4.0 miles
Clouds Clear
Windchill 15 °F
Dew Point 15 °F
Humidity 100%
Rainfall 0.00 in
Snow Depth Not available.
UV 0 out of 12
Pollen .10 out of 12
Air Quality Not available.
Flu Activity Not available.
METAR KAOH 280653Z AUTO 00000KT 4SM HZ CLR M12/M15 A3023 RMK AO2 SLP254 T11221150

More Conditions Fewer Conditions

10-Day Weather Forecast

Almanac

Astronomy

Jan. 28, 2015 Rise Set
Actual Time
Civil Twilight
Nautical Twilight
Astronomical Twilight
Moon
Length of Visible Light
Length of Day
Tomorrow will be .
, % of the Moon is Illuminated

Today's Extremes

State Highs State Lows

Community

WunderPhotos

Upload Photos

1,791,117 photos uploaded!

WunderBlogs® & News

Nearby

Air Quality

  Air Quality AQ Index Pollutant
Not available.

Snow Depth

Station Depth Elevation

Earthquake Activity

City Distance Mag. Time & Date
Minimum magnitude displayed is 2.5.

Coastal Water Temperatures

Place Temperature

Nearby Weather Stations